Time;durP1;ratioP1;P1;durP2;ratioP2;P2;SDS_P1;SDS_P2;PMS_P1;PMS_P2;Temp;Humidity;BMP_temperature;BMP_pressure;BME280_temperature;BME280_humidity;BME280_pressure;Samples;Min_cycle;Max_cycle;Signal;HPM_P1;HPM_P2
2021/08/21 00:02:16;;;;;;;19.65;12.50;;;;;;;15.28;84.64;100434.22;1685554;83;25730;-65
2021/08/21 00:04:42;;;;;;;19.50;11.65;;;;;;;15.30;84.78;100430.02;1714374;83;25670;-65
2021/08/21 00:07:08;;;;;;;18.60;12.65;;;;;;;15.36;84.89;100421.62;1714363;83;27342;-65
2021/08/21 00:09:38;;;;;;;19.90;12.93;;;;;;;15.39;84.85;100434.03;1714419;83;25822;-65
2021/08/21 00:12:06;;;;;;;;;;;;;;;15.41;85.04;100429.03;1716880;83;25681;-65
2021/08/21 00:14:34;;;;;;;26.00;14.18;;;;;;;15.46;85.24;100431.53;1714310;83;25713;-65
2021/08/21 00:17:02;;;;;;;22.40;15.85;;;;;;;15.47;85.26;100435.05;1714376;83;25783;-65
2021/08/21 00:19:29;;;;;;;25.57;15.68;;;;;;;15.49;85.46;100430.86;1686204;83;27449;-65
2021/08/21 00:21:56;;;;;;;21.68;15.60;;;;;;;15.53;85.39;100430.16;1685954;83;25780;-65
2021/08/21 00:24:23;;;;;;;25.72;15.23;;;;;;;15.57;85.54;100439.27;1714334;83;25801;-65
2021/08/21 00:26:49;;;;;;;27.93;17.05;;;;;;;15.59;85.54;100435.63;1714196;83;25680;-65
2021/08/21 00:29:15;;;;;;;35.95;17.45;;;;;;;15.62;85.67;100439.05;1685712;83;25691;-65
2021/08/21 00:31:41;;;;;;;29.12;17.90;;;;;;;15.63;85.60;100437.34;1714397;83;28092;-65
2021/08/21 00:34:08;;;;;;;25.48;17.80;;;;;;;15.67;85.72;100439.61;1714324;83;25687;-64
2021/08/21 00:36:34;;;;;;;30.40;18.57;;;;;;;15.71;85.75;100440.30;1714271;83;25731;-65
2021/08/21 00:39:00;;;;;;;28.85;18.87;;;;;;;15.73;85.66;100443.48;1714303;83;25765;-65
2021/08/21 00:41:28;;;;;;;33.02;19.48;;;;;;;15.75;85.75;100444.78;1714370;83;25843;-66
2021/08/21 00:43:54;;;;;;;33.00;20.92;;;;;;;15.78;85.86;100441.92;1714361;83;27416;-66
2021/08/21 00:46:21;;;;;;;36.95;21.40;;;;;;;15.79;85.84;100440.80;1714268;83;25806;-66
2021/08/21 00:48:47;;;;;;;37.70;21.77;;;;;;;15.82;85.95;100437.39;1714206;83;26103;-64
2021/08/21 00:51:13;;;;;;;41.45;22.30;;;;;;;15.85;85.97;100435.33;1714211;83;27856;-65
2021/08/21 00:53:40;;;;;;;36.65;22.15;;;;;;;15.86;86.05;100439.08;1714339;83;26420;-65
2021/08/21 00:56:06;;;;;;;39.45;23.12;;;;;;;15.89;86.07;100440.34;1714208;83;27319;-65
2021/08/21 00:58:33;;;;;;;37.35;22.55;;;;;;;15.92;86.03;100438.85;1714304;83;25754;-66
2021/08/21 01:01:00;;;;;;;33.42;21.80;;;;;;;15.93;85.88;100441.81;1714321;83;25730;-66
2021/08/21 01:03:27;;;;;;;36.17;21.33;;;;;;;15.94;85.88;100444.20;1714295;83;25702;-66
2021/08/21 01:05:53;;;;;;;36.15;22.22;;;;;;;15.95;85.83;100447.14;1714309;83;25709;-66
2021/08/21 01:08:19;;;;;;;39.55;22.95;;;;;;;15.95;85.89;100444.99;1685827;83;27390;-66
2021/08/21 01:10:47;;;;;;;35.55;21.85;;;;;;;15.96;85.91;100444.66;1714140;83;25649;-66
2021/08/21 01:13:13;;;;;;;35.73;20.62;;;;;;;15.97;85.87;100440.80;1714279;83;25722;-66
2021/08/21 01:15:40;;;;;;;33.78;21.48;;;;;;;15.99;85.84;100443.98;1714228;83;25705;-67
2021/08/21 01:18:07;;;;;;;42.38;23.20;;;;;;;15.99;85.94;100438.52;1714298;83;25651;-67
2021/08/21 01:20:34;;;;;;;34.40;21.82;;;;;;;16.01;86.00;100441.70;1714322;83;27489;-64
2021/08/21 01:23:05;;;;;;;36.60;22.37;;;;;;;16.01;85.84;100439.55;1714257;83;26500;-67
2021/08/21 01:25:33;;;;;;;39.55;22.52;;;;;;;16.01;85.83;100436.24;1714339;83;25713;-66
2021/08/21 01:28:00;;;;;;;40.98;23.27;;;;;;;16.02;85.78;100429.66;1714274;83;25754;-66
2021/08/21 01:30:27;;;;;;;42.67;23.85;;;;;;;16.02;85.76;100425.56;1714312;83;25732;-67
2021/08/21 01:32:53;;;;;;;39.55;24.18;;;;;;;16.03;85.83;100426.35;1685571;83;28201;-64
2021/08/21 01:35:20;;;;;;;42.43;24.12;;;;;;;16.03;85.84;100424.41;1714272;83;25714;-66
2021/08/21 01:37:47;;;;;;;39.23;22.87;;;;;;;16.05;85.85;100428.95;1714324;83;25681;-64
2021/08/21 01:40:14;;;;;;;43.02;25.50;;;;;;;16.05;85.84;100422.12;1714161;83;25799;-65
2021/08/21 01:42:42;;;;;;;42.67;26.00;;;;;;;16.06;85.87;100422.37;1714335;83;25848;-65
2021/08/21 01:45:13;;;;;;;42.93;23.73;;;;;;;16.07;85.74;100421.79;1714290;83;27330;-65
2021/08/21 01:47:41;;;;;;;44.13;24.77;;;;;;;16.06;85.80;100426.46;1714122;83;25774;-65
2021/08/21 01:50:16;;;;;;;45.17;24.90;;;;;;;16.04;85.71;100420.56;1714274;83;25777;-66
2021/08/21 01:52:41;;;;;;;45.80;26.80;;;;;;;16.05;85.86;100418.61;1713964;83;25770;-65
2021/08/21 01:55:09;;;;;;;49.30;27.25;;;;;;;16.03;85.66;100421.69;1714339;83;25800;-65
2021/08/21 01:57:45;;;;;;;44.50;25.82;;;;;;;16.01;85.67;100428.05;1714368;83;27391;-65
2021/08/21 02:00:13;;;;;;;41.88;25.80;;;;;;;16.01;85.75;100424.55;1710255;83;25890;-65
2021/08/21 02:02:41;;;;;;;48.78;26.93;;;;;;;16.01;85.90;100426.70;1710351;83;25752;-65
2021/08/21 02:05:09;;;;;;;44.77;25.25;;;;;;;16.02;85.93;100426.11;1710290;83;26433;-65
2021/08/21 02:07:36;;;;;;;50.67;26.90;;;;;;;16.00;85.74;100433.27;1710280;83;25730;-65
2021/08/21 02:10:05;;;;;;;45.75;26.37;;;;;;;16.00;85.85;100425.67;1710338;83;27323;-66
2021/08/21 02:12:33;;;;;;;45.23;26.73;;;;;;;16.00;85.92;100425.67;1684316;83;25742;-65
2021/08/21 02:15:00;;;;;;;45.05;26.82;;;;;;;16.00;86.01;100427.82;1710277;83;25662;-65
2021/08/21 02:17:27;;;;;;;41.48;25.35;;;;;;;16.00;85.99;100428.39;1710312;83;25822;-65
2021/08/21 02:19:53;;;;;;;46.25;26.57;;;;;;;16.01;86.08;100431.36;1706074;83;25649;-65
2021/08/21 02:22:19;;;;;;;44.63;25.85;;;;;;;16.03;86.14;100427.14;1710275;83;27397;-66
2021/08/21 02:24:52;;;;;;;47.00;25.82;;;;;;;16.03;86.10;100430.45;1710304;83;25662;-65
2021/08/21 02:27:13;;;;;;;46.05;26.17;;;;;;;16.02;86.02;100428.30;1709364;83;25809;-65
2021/08/21 02:29:40;;;;;;;44.83;25.85;;;;;;;16.03;86.03;100435.33;1710319;83;25736;-66
2021/08/21 02:32:07;;;;;;;46.42;27.87;;;;;;;16.04;86.07;100436.14;1710467;83;25677;-67
2021/08/21 02:34:33;;;;;;;46.77;27.67;;;;;;;16.03;86.23;100435.33;1710414;83;27329;-66
2021/08/21 02:36:59;;;;;;;45.85;28.02;;;;;;;16.01;86.16;100432.15;1710137;83;26369;-66
2021/08/21 02:39:26;;;;;;;45.43;27.67;;;;;;;16.00;86.11;100437.37;1710376;83;25617;-65
2021/08/21 02:41:53;;;;;;;41.23;26.35;;;;;;;15.98;86.10;100439.65;1710233;83;26227;-65
2021/08/21 02:44:19;;;;;;;43.48;26.12;;;;;;;15.98;86.22;100434.19;1710336;83;25746;-66
2021/08/21 02:46:45;;;;;;;39.33;25.30;;;;;;;15.98;86.16;100436.13;1710316;83;28135;-66
2021/08/21 02:49:11;;;;;;;46.48;27.27;;;;;;;15.98;86.33;100432.83;1710244;83;25724;-66
2021/08/21 02:51:38;;;;;;;39.92;26.25;;;;;;;16.00;86.40;100440.67;1710222;83;25842;-65
2021/08/21 02:54:04;;;;;;;44.10;27.22;;;;;;;16.00;86.54;100441.45;1710296;83;25713;-66
2021/08/21 02:56:31;;;;;;;45.65;26.93;;;;;;;16.02;86.70;100439.20;1710320;83;25793;-66
2021/08/21 02:58:57;;;;;;;43.58;26.60;;;;;;;16.02;86.68;100441.94;1711570;83;28191;-66
2021/08/21 03:01:23;;;;;;;46.70;27.30;;;;;;;16.03;86.56;100439.42;1714203;83;27262;-65
2021/08/21 03:03:50;;;;;;;44.63;25.85;;;;;;;16.05;86.58;100441.80;1714405;83;26295;-65
2021/08/21 03:06:16;;;;;;;55.12;29.07;;;;;;;16.05;86.66;100432.26;1714378;83;25757;-65
2021/08/21 03:08:43;;;;;;;45.80;28.40;;;;;;;16.05;86.61;100437.71;1714367;83;25845;-66
2021/08/21 03:11:10;;;;;;;44.30;27.07;;;;;;;16.03;86.43;100433.17;1714311;83;27325;-66
2021/08/21 03:13:40;;;;;;;45.00;26.80;;;;;;;16.03;86.55;100433.95;1714309;83;25683;-66
2021/08/21 03:16:07;;;;;;;46.40;27.07;;;;;;;16.03;86.58;100436.69;1714381;83;25742;-66
2021/08/21 03:18:33;;;;;;;47.95;27.73;;;;;;;16.03;86.52;100435.33;1714322;83;25679;-66
2021/08/21 03:20:59;;;;;;;44.83;26.27;;;;;;;16.04;86.64;100437.50;1714434;83;25693;-66
2021/08/21 03:23:26;;;;;;;47.27;27.90;;;;;;;16.04;86.53;100438.88;1714448;83;27496;-66
2021/08/21 03:25:52;;;;;;;49.98;28.27;;;;;;;16.04;86.60;100440.23;1714248;83;25780;-66
2021/08/21 03:28:18;;;;;;;48.75;30.32;;;;;;;16.05;86.70;100439.86;1714473;83;25779;-66
2021/08/21 03:30:44;;;;;;;47.13;27.80;;;;;;;16.04;86.69;100439.66;1714209;83;25769;-66
2021/08/21 03:33:11;;;;;;;46.68;28.83;;;;;;;16.04;86.71;100442.38;1714318;83;25655;-66
2021/08/21 03:35:37;;;;;;;45.40;28.65;;;;;;;16.06;86.79;100452.95;1714406;83;28067;-66
2021/08/21 03:38:03;;;;;;;46.95;28.35;;;;;;;16.06;86.81;100447.50;1714242;83;26002;-66
2021/08/21 03:40:30;;;;;;;47.05;27.85;;;;;;;16.08;86.80;100444.44;1714320;83;25741;-66
2021/08/21 03:42:56;;;;;;;47.13;30.37;;;;;;;16.08;86.81;100451.25;1714308;83;26338;-66
2021/08/21 03:45:22;;;;;;;53.75;30.60;;;;;;;16.10;87.06;100447.61;1685809;83;25779;-66
2021/08/21 03:47:49;;;;;;;50.38;28.70;;;;;;;16.11;87.09;100441.03;1714307;83;27340;-66
2021/08/21 03:50:15;;;;;;;47.73;29.12;;;;;;;16.12;86.96;100443.96;1714231;83;25706;-66
2021/08/21 03:52:42;;;;;;;53.13;29.90;;;;;;;16.12;86.91;100443.38;1714267;83;25646;-66
2021/08/21 03:55:09;;;;;;;50.98;30.82;;;;;;;16.13;86.94;100448.30;1714322;83;25705;-66
2021/08/21 03:57:36;;;;;;;47.93;29.10;;;;;;;16.12;86.83;100445.33;1714366;83;25665;-66
2021/08/21 04:00:05;;;;;;;47.58;29.52;;;;;;;16.10;86.83;100445.67;1719370;83;27382;-65
2021/08/21 04:02:31;;;;;;;47.65;29.87;;;;;;;16.09;86.78;100449.55;1722832;83;25798;-66
2021/08/21 04:04:57;;;;;;;49.38;30.17;;;;;;;16.08;86.67;100456.71;1722930;83;26368;-66
2021/08/21 04:07:23;;;;;;;50.67;29.12;;;;;;;16.04;86.76;100457.39;1722804;83;25682;-66
2021/08/21 04:09:50;;;;;;;47.48;26.37;;;;;;;16.03;86.70;100465.33;1722810;83;25696;-65
2021/08/21 04:12:18;;;;;;;46.10;26.30;;;;;;;16.01;86.72;100465.47;1722869;82;28154;-66
2021/08/21 04:14:47;;;;;;;40.00;24.35;;;;;;;16.00;86.77;100470.10;1722715;83;25749;-65
2021/08/21 04:17:13;;;;;;;42.35;23.77;;;;;;;16.01;86.82;100476.38;1722909;83;34931;-65
2021/08/21 04:19:40;;;;;;;40.23;22.45;;;;;;;16.00;86.85;100478.87;1722761;83;26372;-65
2021/08/21 04:22:07;;;;;;;34.30;21.15;;;;;;;15.99;86.98;100469.89;1722861;83;25962;-66
2021/08/21 04:24:33;;;;;;;37.58;22.27;;;;;;;16.00;87.00;100478.28;1722948;83;27389;-66
2021/08/21 04:26:59;;;;;;;37.40;21.35;;;;;;;16.03;87.23;100483.64;1722862;82;25704;-66
2021/08/21 04:29:26;;;;;;;39.78;22.58;;;;;;;16.05;87.26;100489.55;1722765;83;25819;-66
2021/08/21 04:31:52;;;;;;;37.55;22.58;;;;;;;16.06;87.37;100486.48;1722736;83;25796;-66
2021/08/21 04:34:19;;;;;;;34.98;22.15;;;;;;;16.10;87.47;100495.36;1722787;83;26338;-65
2021/08/21 04:36:45;;;;;;;36.88;21.93;;;;;;;16.12;87.44;100487.05;1697771;83;27401;-65
2021/08/21 04:39:11;;;;;;;36.93;23.02;;;;;;;16.13;87.48;100498.20;1722765;82;25714;-65
2021/08/21 04:41:38;;;;;;;40.80;23.57;;;;;;;16.16;87.48;100491.27;1722858;83;25684;-65
2021/08/21 04:44:04;;;;;;;37.78;22.82;;;;;;;16.18;87.60;100492.51;1722701;82;25746;-65
2021/08/21 04:46:33;;;;;;;39.48;23.30;;;;;;;16.22;87.67;100495.34;1722978;83;25851;-65
2021/08/21 04:48:59;;;;;;;41.50;24.40;;;;;;;16.24;87.70;100495.25;1722810;83;26554;-65
2021/08/21 04:51:25;;;;;;;39.90;22.93;;;;;;;16.27;87.54;100497.05;1697735;83;27248;-66
2021/08/21 04:53:51;;;;;;;39.25;23.00;;;;;;;16.27;87.50;100497.05;1722766;83;25689;-66
2021/08/21 04:56:18;;;;;;;42.08;24.02;;;;;;;16.29;87.72;100500.23;1722805;82;25845;-65
2021/08/21 04:58:44;;;;;;;39.40;24.63;;;;;;;16.32;87.84;100502.28;1722746;83;26500;-65
2021/08/21 05:01:10;;;;;;;41.15;23.50;;;;;;;16.36;87.86;100505.91;1722641;83;27413;-65
2021/08/21 05:03:37;;;;;;;42.40;24.30;;;;;;;16.38;87.76;100509.91;1722727;83;25769;-65
2021/08/21 05:06:03;;;;;;;41.05;24.27;;;;;;;16.42;87.77;100513.52;1722776;83;25679;-65
2021/08/21 05:08:29;;;;;;;39.78;25.43;;;;;;;16.44;87.81;100512.61;1722897;83;25705;-65
2021/08/21 05:10:56;;;;;;;47.45;24.37;;;;;;;16.48;87.80;100516.02;1722845;83;25658;-65
2021/08/21 05:13:22;;;;;;;42.20;24.12;;;;;;;16.49;87.72;100517.63;1722736;83;28209;-65
2021/08/21 05:15:49;;;;;;;41.40;24.40;;;;;;;16.50;87.53;100518.65;1722721;83;33354;-66
2021/08/21 05:18:22;;;;;;;38.88;23.42;;;;;;;16.51;87.57;100523.53;1722796;83;25648;-65
2021/08/21 05:20:51;;;;;;;41.20;24.98;;;;;;;16.51;87.53;100519.44;1721580;83;27753;-65
2021/08/21 05:23:14;;;;;;;38.23;23.98;;;;;;;16.54;87.52;100521.48;1721827;83;25733;-65
2021/08/21 05:25:47;;;;;;;45.35;26.70;;;;;;;16.55;87.28;100526.60;1722898;83;27384;-65
2021/08/21 05:28:19;;;;;;;50.28;27.10;;;;;;;16.55;87.00;100528.52;1722730;83;27245;-66
2021/08/21 05:30:47;;;;;;;47.70;27.73;;;;;;;16.49;86.70;100531.27;1722894;83;25726;-63
2021/08/21 05:33:16;;;;;;;50.43;27.55;;;;;;;16.46;86.68;100534.11;1722765;83;25710;-66
2021/08/21 05:35:43;;;;;;;45.95;27.73;;;;;;;16.46;86.90;100530.59;1723128;83;25716;-66
2021/08/21 05:38:11;;;;;;;48.65;28.17;;;;;;;16.42;86.79;100535.36;1722959;83;27053;-66
2021/08/21 05:40:39;;;;;;;50.92;30.68;;;;;;;16.41;86.79;100540.61;1722886;83;25771;-66
2021/08/21 05:43:06;;;;;;;50.50;29.85;;;;;;;16.40;86.95;100536.28;1722977;83;25702;-65
2021/08/21 05:45:33;;;;;;;51.42;29.55;;;;;;;16.37;86.59;100544.36;1722934;83;26337;-65
2021/08/21 05:47:59;;;;;;;47.95;30.50;;;;;;;16.36;86.83;100550.95;1722950;83;25741;-65
2021/08/21 05:50:27;;;;;;;47.53;30.52;;;;;;;16.35;86.96;100545.28;1722935;83;28120;-66
2021/08/21 05:52:54;;;;;;;46.77;29.95;;;;;;;16.36;86.96;100545.48;1722897;82;25821;-65
2021/08/21 05:55:20;;;;;;;47.38;31.15;;;;;;;16.34;86.99;100541.73;1722906;83;25773;-66
2021/08/21 05:57:47;;;;;;;47.30;30.20;;;;;;;16.34;86.81;100549.13;1722922;83;25756;-66
2021/08/21 06:00:15;;;;;;;49.18;31.55;;;;;;;16.30;86.46;100553.70;1718092;83;25650;-65
2021/08/21 06:02:43;;;;;;;46.75;29.87;;;;;;;16.25;86.32;100551.98;1710327;83;27322;-65
2021/08/21 06:05:11;;;;;;;49.38;30.27;;;;;;;16.23;86.50;100558.35;1710224;83;25633;-65
2021/08/21 06:07:39;;;;;;;49.33;29.85;;;;;;;16.22;86.65;100561.63;1710386;83;25806;-65
2021/08/21 06:10:08;;;;;;;48.10;31.25;;;;;;;16.21;86.75;100563.36;1710273;83;25802;-65
2021/08/21 06:12:35;;;;;;;46.40;31.13;;;;;;;16.19;86.72;100567.80;1684339;83;25786;-65
2021/08/21 06:15:03;;;;;;;43.98;30.17;;;;;;;16.17;86.75;100565.95;1710338;83;27379;-65
2021/08/21 06:17:29;;;;;;;45.90;31.05;;;;;;;16.16;86.73;100567.11;1683765;83;25873;-65
2021/08/21 06:19:59;;;;;;;45.10;29.75;;;;;;;16.12;86.70;100568.90;1710378;83;25631;-65
2021/08/21 06:22:26;;;;;;;43.38;27.93;;;;;;;16.12;86.77;100568.11;1684516;83;25936;-65
2021/08/21 06:24:53;;;;;;;50.28;29.85;;;;;;;16.09;86.88;100566.88;1710344;83;25730;-65
2021/08/21 06:27:19;;;;;;;45.78;28.52;;;;;;;16.11;87.14;100560.50;1710265;83;28274;-65
2021/08/21 06:29:46;;;;;;;48.73;28.83;;;;;;;16.15;87.20;100572.32;1710242;83;26427;-65
2021/08/21 06:32:12;;;;;;;43.52;27.87;;;;;;;16.18;87.25;100568.92;1683738;83;26419;-65
2021/08/21 06:34:38;;;;;;;42.65;27.77;;;;;;;16.20;87.21;100572.67;1710372;83;25688;-65
2021/08/21 06:37:05;;;;;;;41.60;26.75;;;;;;;16.21;87.11;100572.34;1710288;83;25703;-65
2021/08/21 06:39:33;;;;;;;46.73;29.20;;;;;;;16.21;87.12;100577.80;1684096;83;27385;-65
2021/08/21 06:42:01;;;;;;;42.33;28.07;;;;;;;16.25;87.64;100577.33;1710261;83;25800;-65
2021/08/21 06:44:29;;;;;;;45.38;27.67;;;;;;;16.34;88.14;100576.43;1710337;83;25641;-65
2021/08/21 06:46:56;;;;;;;41.40;26.50;;;;;;;16.39;88.07;100583.81;1710220;83;25963;-65
2021/08/21 06:49:22;;;;;;;42.45;27.02;;;;;;;16.41;87.76;100582.93;1710360;83;25662;-65
2021/08/21 06:51:49;;;;;;;44.00;27.13;;;;;;;16.45;87.83;100576.21;1710293;83;27322;-65
2021/08/21 06:54:15;;;;;;;39.38;26.55;;;;;;;16.48;87.74;100575.53;1710182;83;26571;-65
2021/08/21 06:56:42;;;;;;;40.12;27.40;;;;;;;16.51;87.38;100576.77;1710386;83;25728;-65
2021/08/21 06:59:08;;;;;;;44.80;26.17;;;;;;;16.55;88.00;100584.49;1710270;83;26483;-65
2021/08/21 07:01:39;;;;;;;38.80;25.32;;;;;;;16.62;87.85;100583.38;1710307;83;25773;-65
2021/08/21 07:04:07;;;;;;;34.48;24.20;;;;;;;16.66;87.88;100584.27;1710382;83;27404;-65
2021/08/21 07:06:33;;;;;;;44.45;28.02;;;;;;;16.73;88.04;100582.33;1710187;83;25743;-65
2021/08/21 07:09:00;;;;;;;36.77;24.27;;;;;;;16.81;88.50;100583.56;1710374;83;25714;-65
2021/08/21 07:11:27;;;;;;;39.35;25.65;;;;;;;16.92;88.33;100583.12;1710223;83;25777;-65
2021/08/21 07:13:53;;;;;;;39.80;25.75;;;;;;;16.99;88.29;100586.05;1710232;82;25766;-65
2021/08/21 07:16:20;;;;;;;39.67;24.50;;;;;;;17.06;87.99;100589.02;1710319;83;27385;-65
2021/08/21 07:18:46;;;;;;;40.98;27.02;;;;;;;17.16;88.21;100592.64;1710317;83;25786;-65
2021/08/21 07:21:12;;;;;;;38.92;24.27;;;;;;;17.26;88.31;100591.33;1710331;83;25636;-65
2021/08/21 07:23:39;;;;;;;37.13;24.80;;;;;;;17.32;87.73;100598.73;1710306;83;26382;-65
2021/08/21 07:26:05;;;;;;;36.83;25.50;;;;;;;17.39;87.73;100598.15;1710285;83;25896;-65
2021/08/21 07:28:32;;;;;;;40.08;25.62;;;;;;;17.43;87.26;100602.55;1710334;83;27202;-65
2021/08/21 07:31:00;;;;;;;38.45;24.50;;;;;;;17.50;87.64;100600.59;1683613;83;25742;-65
2021/08/21 07:33:28;;;;;;;37.93;25.00;;;;;;;17.60;87.44;100608.88;1710285;83;26360;-65
2021/08/21 07:35:56;;;;;;;35.95;24.65;;;;;;;17.66;86.90;100617.06;1710213;83;25741;-65
2021/08/21 07:38:23;;;;;;;36.88;25.25;;;;;;;17.73;86.59;100619.41;1710302;83;25790;-65
2021/08/21 07:40:51;;;;;;;37.15;24.72;;;;;;;17.82;86.97;100612.98;1710257;83;27375;-65
2021/08/21 07:43:18;;;;;;;41.23;26.27;;;;;;;17.95;87.29;100612.39;1710211;83;26448;-65
2021/08/21 07:45:46;;;;;;;35.75;25.48;;;;;;;18.08;87.16;100615.25;1710324;83;25722;-65
2021/08/21 07:48:17;;;;;;;38.48;23.60;;;;;;;18.21;86.92;100620.08;1683656;83;25721;-65
2021/08/21 07:50:45;;;;;;;34.73;23.67;;;;;;;18.33;86.32;100620.57;1710346;83;25742;-65
2021/08/21 07:53:13;;;;;;;36.03;25.27;;;;;;;18.41;86.23;100624.50;1710333;83;27965;-65
2021/08/21 07:55:41;;;;;;;29.40;22.48;;;;;;;18.57;86.28;100622.32;1710218;83;25736;-65
2021/08/21 07:58:08;;;;;;;32.23;23.43;;;;;;;18.63;84.83;100624.44;1710594;83;25789;-65
2021/08/21 08:00:34;;;;;;;33.02;23.40;;;;;;;18.69;84.24;100627.69;1711144;83;25714;-65
2021/08/21 08:03:01;;;;;;;31.73;22.13;;;;;;;18.73;83.62;100629.14;1714522;83;25772;-65
2021/08/21 08:05:27;;;;;;;30.15;21.57;;;;;;;18.76;83.46;100628.43;1714474;83;27352;-65
2021/08/21 08:07:54;;;;;;;28.38;21.27;;;;;;;18.81;82.81;100630.34;1714356;83;25716;-65
2021/08/21 08:10:20;;;;;;;28.38;20.52;;;;;;;18.81;82.51;100625.41;1714319;83;25678;-64
2021/08/21 08:12:47;;;;;;;29.75;22.17;;;;;;;18.93;83.21;100628.06;1714324;83;25759;-64
2021/08/21 08:15:13;;;;;;;27.22;20.55;;;;;;;19.09;83.46;100629.41;1714390;83;25799;-64
2021/08/21 08:17:40;;;;;;;27.95;20.05;;;;;;;19.20;82.63;100631.00;1714331;83;27382;-65
2021/08/21 08:20:09;;;;;;;28.98;20.40;;;;;;;19.26;81.85;100626.83;1714431;83;25728;-64
2021/08/21 08:22:35;;;;;;;27.37;19.87;;;;;;;19.38;82.17;100628.64;1714518;83;25743;-64
2021/08/21 08:25:03;;;;;;;27.85;19.50;;;;;;;19.76;83.98;100626.47;1714328;83;27791;-64
2021/08/21 08:27:29;;;;;;;26.17;18.92;;;;;;;20.04;81.67;100625.98;1714475;83;26400;-64
2021/08/21 08:29:56;;;;;;;25.75;18.87;;;;;;;20.14;80.58;100625.38;1714375;83;27343;-64
2021/08/21 08:32:22;;;;;;;24.12;18.60;;;;;;;20.21;79.80;100626.08;1714324;83;25761;-64
2021/08/21 08:34:48;;;;;;;26.68;19.07;;;;;;;20.40;79.70;100626.02;1714453;83;25744;-64
2021/08/21 08:37:15;;;;;;;23.20;18.30;;;;;;;20.61;79.30;100629.67;1714428;83;25740;-63
2021/08/21 08:39:41;;;;;;;27.55;18.75;;;;;;;20.69;77.67;100627.28;1714521;83;25716;-64
2021/08/21 08:42:10;;;;;;;22.98;17.98;;;;;;;20.76;77.45;100624.44;1714549;83;27347;-63
2021/08/21 08:44:47;;;;;;;23.02;18.42;;;;;;;20.86;77.29;100629.30;1714421;83;25889;-63
2021/08/21 08:47:21;;;;;;;26.40;18.15;;;;;;;20.92;76.68;100632.52;1714454;83;25647;-63
2021/08/21 08:49:50;;;;;;;22.45;17.77;;;;;;;20.86;74.39;100630.67;1714376;83;27708;-64
2021/08/21 08:52:18;;;;;;;27.55;17.85;;;;;;;20.59;73.58;100628.48;1714656;83;28739;-64
2021/08/21 08:54:46;;;;;;;23.10;17.40;;;;;;;20.45;73.91;100649.06;1714623;83;28048;-63
2021/08/21 08:57:39;;;;;;;27.50;17.40;;;;;;;20.45;73.91;100649.06;1714315;83;25776;-63
2021/08/21 09:00:17;;;;;;;22.25;15.90;;;;;;;20.34;74.94;100632.97;1713776;83;25645;-63
2021/08/21 09:02:50;;;;;;;20.50;15.60;;;;;;;20.45;74.73;100633.95;1722490;83;25645;-63
2021/08/21 09:05:21;;;;;;;20.85;15.45;;;;;;;20.63;75.24;100632.88;1723067;83;25665;-63
2021/08/21 09:07:54;;;;;;;20.48;14.43;;;;;;;20.70;75.32;100635.75;1722947;83;27334;-63
2021/08/21 09:10:27;;;;;;;22.05;13.80;;;;;;;20.97;75.32;100634.94;1722993;82;25851;-63
2021/08/21 09:13:10;;;;;;;15.65;12.23;;;;;;;21.26;74.29;100639.64;1722997;83;25733;-63
2021/08/21 09:15:44;;;;;;;13.28;10.53;;;;;;;21.30;72.04;100636.97;1722828;82;25662;-63
2021/08/21 09:18:15;;;;;;;13.90;10.93;;;;;;;21.34;73.05;100631.50;1723001;83;25714;-61
2021/08/21 09:20:53;;;;;;;11.85;9.85;;;;;;;21.36;71.66;100642.33;1722822;83;27403;-62
2021/08/21 09:23:38;;;;;;;16.37;10.58;;;;;;;21.49;72.54;100641.55;1723027;83;25649;-64
2021/08/21 09:26:35;;;;;;;12.15;9.83;;;;;;;21.71;71.99;100640.40;1722949;82;25836;-64
2021/08/21 09:29:02;;;;;;;13.00;9.70;;;;;;;21.99;71.93;100640.70;1722811;83;25901;-62
2021/08/21 09:31:33;;;;;;;13.13;11.12;;;;;;;22.39;71.97;100641.10;1722966;83;25674;-62
2021/08/21 09:34:05;;;;;;;13.58;11.20;;;;;;;22.47;69.36;100646.07;1722917;83;27341;-62
2021/08/21 09:36:37;;;;;;;11.45;9.23;;;;;;;22.43;68.59;100648.02;1722838;83;25792;-62
2021/08/21 09:39:15;;;;;;;14.25;10.85;;;;;;;22.56;69.00;100650.69;1721048;82;25709;-62
2021/08/21 09:42:01;;;;;;;12.25;9.28;;;;;;;22.52;67.18;100647.88;1723076;83;26718;-62
2021/08/21 09:44:31;;;;;;;12.45;10.50;;;;;;;22.51;67.87;100647.69;1723022;83;25654;-62
2021/08/21 09:47:25;;;;;;;11.20;9.45;;;;;;;22.58;67.40;100649.72;1723073;83;27358;-62
2021/08/21 09:49:55;;;;;;;11.73;9.83;;;;;;;22.60;67.83;100650.11;1722828;83;25750;-62
2021/08/21 09:52:22;;;;;;;12.80;9.83;;;;;;;22.78;67.55;100650.23;1720072;83;25744;-62
2021/08/21 09:55:06;;;;;;;12.40;9.88;;;;;;;22.89;66.41;100653.08;1722945;83;25811;-62
2021/08/21 09:57:33;;;;;;;10.23;8.20;;;;;;;22.76;65.45;100651.20;1721831;83;25702;-62
2021/08/21 10:00:01;;;;;;;10.13;8.93;;;;;;;22.58;66.03;100652.47;1723029;83;27389;-62
2021/08/21 10:02:33;;;;;;;14.47;8.55;;;;;;;22.62;66.65;100649.73;1716865;82;25730;-62
2021/08/21 10:05:01;;;;;;;10.90;7.75;;;;;;;22.72;65.40;100662.20;1714573;83;25294;-62
2021/08/21 10:07:39;;;;;;;9.75;7.83;;;;;;;22.53;64.65;100653.61;1714476;83;26482;-62
2021/08/21 10:10:06;;;;;;;8.25;7.35;;;;;;;22.46;65.18;100650.80;1713923;83;25685;-62
2021/08/21 10:12:35;;;;;;;8.60;7.75;;;;;;;22.47;65.04;100651.58;1714448;83;28131;-62
2021/08/21 10:15:03;;;;;;;7.83;6.95;;;;;;;22.34;64.88;100650.50;1714370;83;25730;-63
2021/08/21 10:17:31;;;;;;;9.75;6.45;;;;;;;22.11;64.14;100660.29;1714641;83;25729;-62
2021/08/21 10:19:59;;;;;;;8.45;6.80;;;;;;;21.91;64.44;100655.56;1714753;83;26175;-63
2021/08/21 10:22:29;;;;;;;7.40;6.60;;;;;;;21.69;64.04;100655.94;1714656;83;25821;-62
2021/08/21 10:25:04;;;;;;;7.22;6.10;;;;;;;21.64;64.95;100661.78;1714628;83;27437;-62
2021/08/21 10:27:41;;;;;;;7.15;5.95;;;;;;;22.07;65.65;100656.72;1714610;83;25785;-62
2021/08/21 10:30:17;;;;;;;7.42;5.65;;;;;;;22.15;64.22;100654.25;1714773;83;25758;-63
2021/08/21 10:33:00;;;;;;;5.55;4.60;;;;;;;22.18;64.95;100654.06;1714622;83;25706;-62
2021/08/21 10:35:46;;;;;;;8.53;4.95;;;;;;;22.43;64.02;100660.42;1714262;83;25696;-62
2021/08/21 10:38:39;;;;;;;7.28;5.10;;;;;;;22.55;63.74;100655.98;1711301;83;27513;-63
2021/08/21 10:41:14;;;;;;;5.37;4.87;;;;;;;22.67;62.97;100652.92;1714602;83;25745;-62
2021/08/21 10:43:51;;;;;;;4.58;4.17;;;;;;;23.30;65.20;100648.19;1714711;83;25718;-62
2021/08/21 10:46:35;;;;;;;5.50;4.95;;;;;;;24.00;64.09;100647.25;1714563;83;27816;-62
2021/08/21 10:49:07;;;;;;;5.25;4.75;;;;;;;24.12;61.21;100651.61;1714703;83;25783;-62
2021/08/21 10:51:42;;;;;;;8.58;4.87;;;;;;;24.02;60.86;100649.84;1714686;83;27050;-63
2021/08/21 10:54:29;;;;;;;6.62;4.28;;;;;;;23.86;59.91;100648.02;1714482;83;27193;-62
2021/08/21 10:57:00;;;;;;;5.03;4.30;;;;;;;23.65;59.79;100647.33;1714827;83;25780;-63
2021/08/21 10:59:41;;;;;;;4.00;3.70;;;;;;;23.38;59.33;100641.31;1683028;83;25822;-61
2021/08/21 11:02:37;;;;;;;4.20;3.50;;;;;;;23.41;60.01;100645.49;1712910;83;25764;-61
2021/08/21 11:05:05;;;;;;;4.20;3.80;;;;;;;23.72;60.56;100644.61;1710677;83;28161;-61
2021/08/21 11:07:40;;;;;;;3.92;3.27;;;;;;;24.58;61.15;100637.03;1710504;83;25795;-61
2021/08/21 11:10:30;;;;;;;4.80;3.05;;;;;;;25.57;60.55;100646.84;1710606;83;25681;-61
2021/08/21 11:12:57;;;;;;;3.33;2.90;;;;;;;26.23;58.01;100648.82;1710702;83;25790;-62
2021/08/21 11:15:31;;;;;;;3.05;2.85;;;;;;;26.48;55.69;100642.30;1710679;83;25726;-61
2021/08/21 11:17:54;;;;;;;3.47;3.17;;;;;;;26.75;55.10;100643.05;1684363;83;27348;-61
2021/08/21 11:20:34;;;;;;;4.62;3.27;;;;;;;26.93;53.53;100635.93;1710549;83;25753;-61